Latest Coastal Weather Observations for Cape Moreton

IDQ60701

Issued at 2:52 am EST Friday 5 March 2021 (issued every 10 minutes, with the page automatically refreshed every 10 minutes)

About coastal observations | Map of coastal stations | Coastal observations for QLD | Marine services | Other Formats
Station Details ID: 040043 Name: CAPE MORETON LIGHTHOUSE Lat: -27.03 Lon: 153.47 Height: 99.9 m
Data from the previous 72 hours. | See also: Recent months at Cape Moreton
Date/Time
EST
Wind Sea
Height
m
Swell Vis
km
Cloud Weather Temp
°C
Press
MSL
hPa
Rain since
9am
mm
Dir  Spd
kts
Gust
kts
Height
m
Period
s
Dir
05/02:30am ESE 10 12 - - - - - - - 22.2 1008.3 2.6
05/02:00am ESE 10 13 - - - - - - - 22.3 1008.5 2.6
05/01:30am ESE 9 13 - - - - - - - 22.1 1008.8 2.6
05/01:00am ESE 11 15 - - - - - - - 22.1 1009.0 2.6
05/12:30am ESE 9 13 - - - - - - - 22.3 1009.4 2.6
05/12:00am ESE 11 13 - - - - - - - 22.3 1009.6 2.6
 
Date/Time
EST
Wind Sea
Height
m
Swell Vis
km
Cloud Weather Temp
°C
Press
MSL
hPa
Rain since
9am
mm
Dir  Spd
kts
Gust
kts
Height
m
Period
s
Dir
04/11:30pm ESE 13 16 - - - - - - - 22.3 1009.7 2.6
04/11:00pm ESE 13 17 - - - - - - - 22.3 1009.9 2.6
04/10:30pm ESE 14 17 - - - - - - - 22.5 1010.2 2.6
04/10:00pm ESE 12 17 - - - - - - - 22.3 1010.2 2.6
04/09:30pm ESE 14 17 - - - - - - - 22.4 1010.4 2.6
04/09:00pm ESE 15 18 - - - - - - - 22.4 1010.3 2.6
04/08:30pm ESE 14 18 - - - - - - - 22.5 1010.2 2.6
04/08:00pm ESE 15 19 - - - - - - - 22.5 1010.0 2.6
04/07:30pm ESE 16 19 - - - - - - - 22.5 1009.8 2.6
04/07:00pm ESE 16 20 - - - - - - - 22.6 1009.7 2.6
04/06:30pm ESE 16 20 - - - - - - - 22.6 1009.5 2.6
04/06:00pm ESE 15 20 - - - - - - - 22.8 1009.5 2.6
04/05:30pm ESE 19 24 - - - - - - - 22.8 1009.6 2.6
04/05:00pm ESE 19 23 - - - - - - - 22.8 1009.5 2.6
04/04:30pm ESE 19 23 - - - - - - - 22.8 1009.4 2.6
04/04:00pm ESE 17 23 - - - - - - - 21.2 1009.6 2.6
04/03:30pm SE 18 22 - - - - - - - 20.7 1009.8 2.6
04/03:00pm SE 22 32 - - - - - - Recent precip. 20.9 1009.7 2.4
04/02:30pm ESE 25 33 - - - - - - - 20.8 1010.2 2.0
04/02:17pm SE 22 33 - - - - - - - 23.3 1009.7 2.0
04/02:00pm SE 20 24 - - - - - - - 24.7 1010.2 2.0
04/01:30pm SE 22 27 - - - - - - - 24.6 1010.2 2.0
04/01:00pm SE 21 26 - - - - - - - 24.2 1010.6 2.0
04/12:30pm SE 24 29 - - - - - - - 23.2 1010.7 2.0
04/12:00pm SE 23 32 - - - - - - - 23.4 1010.8 2.0
04/11:30am SSE 23 28 - - - - - - - 22.6 1011.0 2.0
04/11:27am SE 22 28 - - - - - - - 22.5 1011.1 2.0
04/11:00am ESE 19 24 - - - - - - - 23.6 1011.2 2.0
04/10:30am SSE 16 23 - - - - - - - 21.8 1011.9 2.0
04/10:18am SE 19 27 - - - - - - - 22.1 1012.0 2.0
04/10:00am ESE 21 25 - - - - - - - 22.6 1011.6 2.0
04/09:47am ESE 15 25 - - - - - - - 21.3 1011.6 2.0
04/09:30am SSE 18 29 - - - - - - - 19.8 1012.1 0.6
04/09:00am SE 17 27 - - - - - - - 22.5 1011.6 0.2
04/08:58am SSE 16 27 - - - - - - - 22.3 1011.4 0.2
04/08:30am SSE 21 28 - - - - - - - 20.9 1011.5 0.2
04/08:17am SE 22 29 - - - - - - - 21.7 1011.1 0.2
04/08:00am ESE 20 25 - - - - - - - 22.9 1011.0 0.2
04/07:30am ESE 23 28 - - - - - - - 21.6 1010.7 0.0
04/07:17am ESE 27 37 - - - - - - - 21.0 1010.5 0.0
04/07:00am SE 28 35 - - - - - - - 21.7 1010.2 0.0
04/06:50am ESE 24 36 - - - - - - - 22.4 1009.9 0.0
04/06:30am ESE 19 23 - - - - - - - 23.6 1010.1 0.0
04/06:00am ESE 18 22 - - - - - - - 23.6 1010.0 0.0
04/05:30am ESE 21 25 - - - - - - - 23.5 1009.8 0.0
04/05:00am ESE 20 25 - - - - - - - 23.5 1009.8 0.0
04/04:30am ESE 21 25 - - - - - - - 23.5 1009.5 0.0
04/04:00am ESE 21 27 - - - - - - - 23.3 1009.3 0.0
04/03:30am ESE 19 24 - - - - - - - 23.5 1009.3 0.0
04/03:00am ESE 19 23 - - - - - - - 23.4 1009.4 0.0
04/02:30am ESE 19 23 - - - - - - - 23.3 1009.5 0.0
04/02:00am ESE 19 23 - - - - - - - 23.3 1009.7 0.0
04/01:30am ESE 21 26 - - - - - - - 23.3 1009.5 0.0
04/01:00am ESE 22 28 - - - - - - - 23.3 1009.6 0.0
04/12:30am ESE 23 27 - - - - - - - 23.4 1009.7 0.0
04/12:00am ESE 22 29 - - - - - - - 23.5 1010.1 0.0
 
Date/Time
EST
Wind Sea
Height
m
Swell Vis
km
Cloud Weather Temp
°C
Press
MSL
hPa
Rain since
9am
mm
Dir  Spd
kts
Gust
kts
Height
m
Period
s
Dir
03/11:30pm ESE 21 26 - - - - - - - 23.5 1010.5 0.0
03/11:00pm ESE 23 30 - - - - - - - 23.6 1010.5 0.0
03/10:30pm ESE 23 29 - - - - - - - 23.7 1010.5 0.0
03/10:00pm ESE 22 27 - - - - - - - 23.8 1010.9 0.0
03/09:30pm ESE 23 27 - - - - - - - 23.7 1010.9 0.0
03/09:00pm ESE 25 29 - - - - - - - 23.7 1010.6 0.0
03/08:30pm ESE 24 29 - - - - - - - 23.7 1010.5 0.0
03/08:00pm ESE 23 29 - - - - - - - 23.7 1010.4 0.0
03/07:30pm ESE 22 26 - - - - - - - 23.7 1010.1 0.0
03/07:00pm ESE 21 26 - - - - - - - 23.6 1009.9 0.0
03/06:30pm ESE 23 27 - - - - - - - 23.6 1009.6 0.0
03/06:00pm ESE 21 27 - - - - - - - 23.7 1009.6 0.0
03/05:30pm ESE 21 26 - - - - - - - 23.7 1009.4 0.0
03/05:00pm ESE 22 26 - - - - - - - 24.0 1009.4 0.0
03/04:30pm ESE 23 27 - - - - - - - 24.0 1009.2 0.0
03/04:00pm ESE 23 29 - - - - - - - 23.9 1009.2 0.0
03/03:30pm ESE 23 27 - - - - - - - 23.9 1009.1 0.0
03/03:00pm ESE 24 29 - - - - - - - 24.1 1009.2 0.0
03/02:30pm SE 24 29 - - - - - - - 24.0 1009.7 0.0
03/02:00pm ESE 23 27 - - - - - - - 24.3 1009.8 0.0
03/01:30pm ESE 23 27 - - - - - - - 24.2 1010.1 0.0
03/01:00pm ESE 24 29 - - - - - - - 24.3 1010.1 0.0
03/12:30pm ESE 23 27 - - - - - - - 24.6 1010.4 0.0
03/12:00pm ESE 21 25 - - - - - - - 24.8 1010.7 0.0
03/11:30am ESE 21 25 - - - - - - - 24.1 1011.0 0.0
03/11:00am ESE 21 25 - - - - - - - 24.7 1010.9 0.0
03/10:30am ESE 21 24 - - - - - - - 24.7 1011.2 0.0
03/10:00am ESE 21 25 - - - - - - - 24.0 1011.3 0.0
03/09:30am ESE 22 26 - - - - - - - 24.2 1011.1 0.0
03/09:00am ESE 25 30 - - - - - - - 24.1 1010.9 0.0
03/08:30am ESE 25 31 - - - - - - - 23.9 1010.5 0.0
03/08:00am ESE 27 32 - - - - - - - 23.7 1010.2 0.0
03/07:30am SE 27 33 - - - - - - - 23.3 1010.2 0.0
03/07:00am SE 24 28 - - - - - - - 23.0 1010.0 0.0
03/06:30am SE 23 28 - - - - - - - 23.2 1009.9 0.0
03/06:00am ESE 26 30 - - - - - - - 23.2 1009.4 0.0
03/05:30am ESE 21 26 - - - - - - - 23.5 1009.4 0.0
03/05:19am SE 13 24 - - - - - - - 23.1 1009.4 0.0
03/05:00am NE 9 23 - - - - - - - 22.1 1009.9 0.0
03/04:30am ESE 19 23 - - - - - - - 24.1 1009.0 0.0
03/04:00am SE 21 26 - - - - - - - 23.8 1008.7 0.0
03/03:30am SE 19 23 - - - - - - - 23.5 1008.6 0.0
03/03:00am SE 18 21 - - - - - - - 23.8 1008.7 0.0
03/02:30am SSE 17 20 - - - - - - - 23.3 1008.7 0.0
03/02:00am S 13 19 - - - - - - - 23.2 1009.0 0.0
03/01:30am S 15 21 - - - - - - - 23.3 1009.1 0.0
03/01:00am S 8 12 - - - - - - - 23.6 1009.2 0.0
03/12:30am SSW 9 12 - - - - - - - 23.4 1009.5 0.0
03/12:00am E 7 9 - - - - - - - 24.6 1009.5 0.0
 
Date/Time
EST
Wind Sea
Height
m
Swell Vis
km
Cloud Weather Temp
°C
Press
MSL
hPa
Rain since
9am
mm
Dir  Spd
kts
Gust
kts
Height
m
Period
s
Dir
02/11:30pm ESE 9 11 - - - - - - - 24.8 1009.6 0.0
02/11:00pm ESE 9 10 - - - - - - - 24.9 1009.7 0.0
02/10:30pm ESE 10 12 - - - - - - - 25.3 1009.9 0.0
02/10:00pm ESE 8 9 - - - - - - - 25.4 1009.8 0.0
02/09:30pm E 9 11 - - - - - - - 25.4 1009.7 0.0
02/09:00pm ESE 7 9 - - - - - - - 25.2 1009.7 0.0
02/08:30pm E 10 12 - - - - - - - 25.4 1009.6 0.0
02/08:00pm E 12 15 - - - - - - - 25.5 1008.8 0.0
02/07:30pm E 13 14 - - - - - - - 25.4 1007.9 0.0
02/07:00pm E 6 7 - - - - - - - 25.2 1008.5 0.0
02/06:30pm ENE 9 11 - - - - - - - 25.5 1008.1 0.0
02/06:00pm NE 9 11 - - - - - - - 25.6 1007.8 0.0
02/05:30pm NE 10 13 - - - - - - - 25.9 1007.4 0.0
02/05:00pm NE 11 14 - - - - - - - 26.2 1007.0 0.0
02/04:30pm NE 13 16 - - - - - - - 26.5 1006.3 0.0
02/04:00pm NE 11 13 - - - - - - - 26.8 1006.7 0.0
02/03:30pm NE 9 13 - - - - - - - 27.4 1007.0 0.0
02/03:00pm NE 9 11 - - - - - - - 27.7 1007.1 0.0
02/02:30pm NE 9 11 - - - - - - - 28.3 1007.3 0.0
02/02:00pm NE 9 11 - - - - - - - 28.6 1007.5 0.0
02/01:30pm NNE 8 11 - - - - - - - 29.1 1007.9 0.0
02/01:00pm NNE 6 9 - - - - - - - 29.0 1008.2 0.0
02/12:30pm NNE 6 9 - - - - - - - 29.0 1008.6 0.0
02/12:00pm N 7 9 - - - - - - - 27.8 1008.8 0.0
02/11:30am N 6 9 - - - - - - - 28.2 1009.0 0.0
02/11:00am N 7 9 - - - - - - - 27.7 1009.3 0.0
02/10:30am N 7 9 - - - - - - - 27.8 1009.5 0.0
02/10:00am NNW 7 8 - - - - - - - 26.4 1009.8 0.0
02/09:30am NNW 6 7 - - - - - - - 26.7 1009.8 0.0
02/09:00am NNW 5 6 - - - - - - - 26.9 1009.7 0.0
02/08:30am N 4 5 - - - - - - - 26.2 1009.4 0.0
02/08:00am N 4 5 - - - - - - - 25.9 1009.3 0.0
02/07:30am N 3 4 - - - - - - - 25.7 1009.2 0.0
02/07:00am CALM 0 0 - - - - - - - 25.1 1009.0 0.0
02/06:30am CALM 0 0 - - - - - - - 24.9 1008.7 0.0
02/06:00am WNW 1 3 - - - - - - - 24.0 1008.4 0.0
02/05:30am WNW 4 4 - - - - - - - 23.8 1008.2 0.0
02/05:00am WNW 4 5 - - - - - - - 23.9 1007.8 0.0
02/04:30am NW 4 5 - - - - - - - 24.1 1008.0 0.0
02/04:00am NNW 6 7 - - - - - - - 24.1 1008.1 0.0
02/03:30am NNW 5 6 - - - - - - - 24.2 1008.0 0.0
02/03:00am N 5 6 - - - - - - - 24.3 1008.3 0.0

Other formats

Comma delimited format used in spreadsheet applications
http://www.bom.gov.au/fwo/IDQ60701/IDQ60701.94594.axf

JavaScript Object Notation format (JSON) in row-major order
http://www.bom.gov.au/fwo/IDQ60701/IDQ60701.94594.json

Data quality

Most of these data are generated automatically and are frequently updated. Quality checks on data are not normally performed. It is possible for incorrect values to appear. Refer to information at About Latest Weather Observations and please check the disclaimer before using these data.